Time;durP1;ratioP1;P1;durP2;ratioP2;P2;SDS_P1;SDS_P2;PMS_P1;PMS_P2;Temp;Humidity;BMP_temperature;BMP_pressure;BME280_temperature;BME280_humidity;BME280_pressure;Samples;Min_cycle;Max_cycle;Signal;HPM_P1;HPM_P2
2022/05/23 00:00:23;;;;;;;3.05;1.00;;;;;;;14.83;100.00;99542.44;5153610;27;20050;-83
2022/05/23 00:02:50;;;;;;;2.22;1.10;;;;;;;14.70;100.00;99522.28;5151890;27;20047;-83
2022/05/23 00:05:17;;;;;;;2.78;1.00;;;;;;;14.64;100.00;99562.22;5134329;27;20053;-83
2022/05/23 00:07:47;;;;;;;3.00;1.00;;;;;;;14.87;100.00;99573.72;5134079;27;20046;-83
2022/05/23 00:10:19;;;;;;;1.88;1.00;;;;;;;14.83;100.00;99574.91;5134673;27;20047;-83
2022/05/23 00:12:46;;;;;;;3.25;1.10;;;;;;;14.53;100.00;99573.50;5133607;27;20043;-82
2022/05/23 00:15:13;;;;;;;1.80;0.93;;;;;;;14.72;100.00;99577.50;5134684;27;20477;-83
2022/05/23 00:17:40;;;;;;;2.42;1.00;;;;;;;14.84;100.00;99573.97;5148802;27;20042;-83
2022/05/23 00:20:10;;;;;;;1.85;0.90;;;;;;;14.62;100.00;99577.31;5153134;27;20042;-82
2022/05/23 00:22:37;;;;;;;2.22;0.90;;;;;;;14.35;100.00;99565.16;5154008;27;20050;-82
2022/05/23 00:25:07;;;;;;;1.98;0.90;;;;;;;14.37;100.00;99575.59;5154354;27;20047;-82
2022/05/23 00:27:37;;;;;;;2.47;1.10;;;;;;;14.27;100.00;99554.34;5152532;27;20046;-83
2022/05/23 00:30:10;;;;;;;2.35;0.80;;;;;;;14.30;100.00;99564.66;5153469;27;20442;-83
2022/05/23 00:35:22;;;;;;;1.75;0.90;;;;;;;14.31;100.00;99562.88;5154214;27;20043;-83
2022/05/23 00:37:52;;;;;;;1.75;1.13;;;;;;;14.27;100.00;99567.53;5134149;27;20051;-83
2022/05/23 00:40:34;;;;;;;1.30;0.80;;;;;;;14.19;100.00;99552.25;5146778;27;20424;-83
2022/05/23 00:43:13;;;;;;;1.45;0.75;;;;;;;14.32;100.00;99559.28;5153345;27;20053;-83
2022/05/23 00:45:41;;;;;;;0.70;0.70;;;;;;;14.38;100.00;99564.09;5153223;27;20581;-83
2022/05/23 00:48:09;;;;;;;2.25;0.80;;;;;;;14.32;100.00;99562.75;5143961;27;20503;-83
2022/05/23 00:50:39;;;;;;;1.25;0.80;;;;;;;14.52;100.00;99565.72;5148060;27;20047;-83
2022/05/23 00:53:09;;;;;;;2.55;0.80;;;;;;;14.40;100.00;99567.47;5131634;27;20122;-83
2022/05/23 00:55:44;;;;;;;0.95;0.80;;;;;;;14.40;100.00;99575.38;5132587;27;20051;-83
2022/05/23 00:58:17;;;;;;;1.83;0.82;;;;;;;14.44;100.00;99575.03;5132762;27;20093;-83
2022/05/23 01:00:43;;;;;;;1.25;0.80;;;;;;;14.14;100.00;99551.72;5145718;27;20537;-83
2022/05/23 01:03:14;;;;;;;1.80;0.88;;;;;;;14.19;100.00;99575.94;5146623;27;20055;-83
2022/05/23 01:05:42;;;;;;;1.35;0.80;;;;;;;13.99;100.00;99556.31;5132289;27;20047;-83
2022/05/23 01:08:09;;;;;;;2.50;0.80;;;;;;;14.41;100.00;99562.09;5131583;27;20047;-83
2022/05/23 01:10:37;;;;;;;2.33;0.90;;;;;;;14.07;100.00;99560.19;5131838;27;20051;-83
2022/05/23 01:13:04;;;;;;;0.95;0.80;;;;;;;14.13;100.00;99551.84;5132822;27;20047;-83
2022/05/23 01:15:32;;;;;;;0.80;0.70;;;;;;;13.81;100.00;99537.41;5151834;27;20056;-83
2022/05/23 01:17:59;;;;;;;4.10;0.90;;;;;;;13.51;100.00;99565.81;5134006;27;20054;-83
2022/05/23 01:20:29;;;;;;;4.25;0.90;;;;;;;13.62;100.00;99526.47;5152226;27;20042;-83
2022/05/23 01:23:01;;;;;;;1.38;0.85;;;;;;;13.76;100.00;99581.59;5145363;27;20058;-83
2022/05/23 01:25:35;;;;;;;2.13;0.98;;;;;;;13.65;100.00;99571.81;5142977;27;20750;-82
2022/05/23 01:28:03;;;;;;;1.45;0.90;;;;;;;13.88;100.00;99558.84;5149931;27;20071;-82
2022/05/23 01:30:31;;;;;;;3.22;1.10;;;;;;;13.83;100.00;99547.81;5153216;27;20049;-82
2022/05/23 01:32:58;;;;;;;2.78;0.93;;;;;;;13.47;100.00;99555.53;5151988;27;20057;-83
2022/05/23 01:35:24;;;;;;;2.15;0.90;;;;;;;13.46;100.00;99519.66;5153355;27;20046;-82
2022/05/23 01:37:51;;;;;;;1.83;0.90;;;;;;;13.78;100.00;99558.66;5152300;27;20057;-83
2022/05/23 01:40:19;;;;;;;1.63;0.93;;;;;;;13.86;100.00;99553.72;5141072;27;20046;-83
2022/05/23 01:42:47;;;;;;;1.58;0.90;;;;;;;13.64;100.00;99562.25;5131930;27;20509;-83
2022/05/23 01:45:16;;;;;;;1.77;0.80;;;;;;;13.78;100.00;99573.59;5142546;27;20051;-82
2022/05/23 01:47:43;;;;;;;1.75;0.90;;;;;;;13.81;100.00;99558.44;5135270;27;20055;-83
2022/05/23 01:50:10;;;;;;;3.45;1.00;;;;;;;13.51;100.00;99569.31;5142604;27;20043;-83
2022/05/23 01:52:38;;;;;;;2.53;1.00;;;;;;;13.14;100.00;99570.88;5152133;27;20134;-83
2022/05/23 01:55:06;;;;;;;1.58;0.90;;;;;;;12.80;100.00;99560.84;5151906;27;20402;-82
2022/05/23 01:57:34;;;;;;;1.52;0.85;;;;;;;12.56;100.00;99567.69;5135521;27;20047;-83
2022/05/23 02:02:47;;;;;;;1.20;0.80;;;;;;;13.01;100.00;99561.19;5137148;27;20054;-82
2022/05/23 02:05:15;;;;;;;1.10;0.70;;;;;;;13.09;100.00;99543.13;5154464;27;21152;-83
2022/05/23 02:07:43;;;;;;;1.50;0.88;;;;;;;13.30;100.00;99569.78;5156531;27;20521;-82
2022/05/23 02:10:11;;;;;;;2.42;0.90;;;;;;;13.06;100.00;99560.91;5155916;27;20045;-82
2022/05/23 02:12:38;;;;;;;1.63;0.90;;;;;;;12.80;100.00;99552.09;5136337;27;20058;-82
2022/05/23 02:15:06;;;;;;;2.45;0.95;;;;;;;12.55;100.00;99579.97;5137018;27;20047;-82
2022/05/23 02:17:33;;;;;;;2.35;1.13;;;;;;;12.53;100.00;99573.97;5153803;27;20122;-82
2022/05/23 02:20:02;;;;;;;2.58;0.90;;;;;;;12.51;100.00;99547.81;5156188;27;20062;-83
2022/05/23 02:22:29;;;;;;;1.38;0.88;;;;;;;12.75;100.00;99560.31;5156378;27;20137;-83
2022/05/23 02:24:56;;;;;;;4.53;1.27;;;;;;;12.33;100.00;99530.63;5156079;27;20050;-83
2022/05/23 02:27:23;;;;;;;1.55;0.90;;;;;;;12.52;100.00;99538.16;5156461;27;20526;-83
2022/05/23 02:29:49;;;;;;;1.10;0.80;;;;;;;12.88;100.00;99527.03;5156449;27;20047;-83
2022/05/23 02:32:16;;;;;;;2.53;0.80;;;;;;;13.07;100.00;99552.09;5155412;27;20512;-83
2022/05/23 02:34:43;;;;;;;2.20;0.90;;;;;;;13.06;100.00;99548.59;5136353;27;20043;-83
2022/05/23 02:37:10;;;;;;;1.65;0.85;;;;;;;12.66;100.00;99548.63;5146448;27;20046;-83
2022/05/23 02:39:37;;;;;;;2.08;0.90;;;;;;;12.98;100.00;99544.78;5154829;27;20043;-83
2022/05/23 02:42:04;;;;;;;2.20;0.90;;;;;;;13.01;100.00;99531.47;5155229;27;20061;-83
2022/05/23 02:44:31;;;;;;;2.05;0.98;;;;;;;13.06;100.00;99522.31;5156254;27;20408;-83
2022/05/23 02:46:58;;;;;;;2.15;0.90;;;;;;;13.14;100.00;99528.84;5143744;27;20069;-83
2022/05/23 02:49:24;;;;;;;2.60;1.00;;;;;;;13.18;100.00;99525.09;5155165;27;20061;-82
2022/05/23 02:51:51;;;;;;;2.20;1.00;;;;;;;13.02;100.00;99541.03;5156352;27;20050;-83
2022/05/23 02:54:18;;;;;;;2.58;0.90;;;;;;;12.86;100.00;99536.78;5156223;27;20047;-82
2022/05/23 02:56:45;;;;;;;1.98;0.85;;;;;;;12.87;100.00;99535.00;5145382;27;20125;-83
2022/05/23 02:59:12;;;;;;;2.17;1.02;;;;;;;12.97;100.00;99532.63;5148994;27;20045;-82
2022/05/23 03:04:24;;;;;;;1.50;0.90;;;;;;;12.41;100.00;99528.38;5153732;27;20734;-83
2022/05/23 03:06:51;;;;;;;1.70;0.80;;;;;;;12.14;100.00;99528.31;5152910;27;20046;-84
2022/05/23 03:09:18;;;;;;;1.83;0.80;;;;;;;12.19;100.00;99496.56;5154329;27;20046;-84
2022/05/23 03:11:44;;;;;;;2.38;1.20;;;;;;;12.52;100.00;99522.41;5155274;27;20069;-84
2022/05/23 03:14:11;;;;;;;3.28;0.90;;;;;;;12.33;100.00;99496.50;5154690;27;20055;-84
2022/05/23 03:16:38;;;;;;;1.27;0.98;;;;;;;12.59;100.00;99510.56;5151388;27;20054;-84
2022/05/23 03:19:05;;;;;;;2.55;1.00;;;;;;;12.80;100.00;99515.34;5155990;27;20050;-84
2022/05/23 03:27:02;;;;;;;3.00;1.10;;;;;;;13.02;100.00;99475.34;5146440;27;20046;-83
2022/05/23 03:29:30;;;;;;;3.17;1.00;;;;;;;13.17;100.00;99508.44;5153989;27;20043;-84
2022/05/23 03:31:57;;;;;;;1.75;0.90;;;;;;;13.18;100.00;99509.31;5155599;27;20046;-83
2022/05/23 03:34:24;;;;;;;2.67;0.90;;;;;;;12.64;100.00;99497.13;5154301;27;20046;-82
2022/05/23 03:36:51;;;;;;;4.72;1.00;;;;;;;12.48;100.00;99502.53;5152210;27;20050;-83
2022/05/23 03:39:18;;;;;;;2.15;0.82;;;;;;;12.25;100.00;99483.03;5148562;27;20391;-82
2022/05/23 03:41:45;;;;;;;3.40;1.05;;;;;;;12.47;100.00;99477.25;5135078;27;20774;-82
2022/05/23 03:44:11;;;;;;;6.45;1.23;;;;;;;12.45;100.00;99468.63;5143180;27;20051;-83
2022/05/23 03:46:38;;;;;;;2.45;0.98;;;;;;;12.94;100.00;99504.75;5146413;27;20047;-83
2022/05/23 03:49:07;;;;;;;3.33;0.95;;;;;;;12.95;100.00;99495.94;5148146;27;20046;-83
2022/05/23 03:51:34;;;;;;;2.53;1.00;;;;;;;12.70;100.00;99497.56;5133941;27;20123;-83
2022/05/23 03:54:01;;;;;;;1.80;0.93;;;;;;;12.54;100.00;99502.16;5151742;27;20053;-83
2022/05/23 03:56:28;;;;;;;2.55;1.00;;;;;;;12.47;100.00;99498.25;5137574;27;20043;-82
2022/05/23 03:58:55;;;;;;;2.10;0.90;;;;;;;12.37;100.00;99494.53;5153492;27;20052;-83
2022/05/23 04:01:24;;;;;;;3.97;1.30;;;;;;;12.25;100.00;99504.03;5143242;27;20421;-83
2022/05/23 04:03:51;;;;;;;1.73;0.95;;;;;;;12.42;100.00;99495.91;5133424;27;20096;-83
2022/05/23 04:06:18;;;;;;;3.03;1.10;;;;;;;12.46;100.00;99518.38;5138851;27;20475;-82
2022/05/23 04:08:45;;;;;;;2.05;1.00;;;;;;;12.47;100.00;99511.38;5154515;27;20043;-83
2022/05/23 04:11:12;;;;;;;1.50;0.80;;;;;;;12.43;100.00;99507.25;5154909;27;20480;-83
2022/05/23 04:13:38;;;;;;;4.28;1.38;;;;;;;12.67;100.00;99508.25;5151023;27;20053;-83
2022/05/23 04:16:05;;;;;;;5.00;1.27;;;;;;;12.38;100.00;99451.56;5150837;27;20075;-82
2022/05/23 04:18:33;;;;;;;2.10;1.00;;;;;;;12.81;100.00;99494.22;5153166;27;20406;-83
2022/05/23 04:21:01;;;;;;;3.05;0.88;;;;;;;12.56;100.00;99479.25;5153990;27;20605;-83
2022/05/23 04:23:28;;;;;;;4.35;1.17;;;;;;;13.09;100.00;99505.53;5153937;27;20047;-83
2022/05/23 04:26:06;;;;;;;3.33;1.13;;;;;;;13.18;100.00;99499.63;5139625;27;20054;-83
2022/05/23 04:28:33;;;;;;;2.40;0.90;;;;;;;13.47;100.00;99462.63;5134586;27;20469;-83
2022/05/23 04:31:00;;;;;;;4.78;0.90;;;;;;;13.71;100.00;99454.81;5141444;27;20050;-83
2022/05/23 04:36:12;;;;;;;3.78;1.20;;;;;;;14.27;100.00;99466.63;5133163;27;20100;-83
2022/05/23 04:38:43;;;;;;;3.00;1.00;;;;;;;14.40;100.00;99485.84;5145382;27;20082;-83
2022/05/23 04:41:10;;;;;;;2.00;0.90;;;;;;;14.27;100.00;99453.44;5154448;27;20046;-83
2022/05/23 04:43:37;;;;;;;3.30;1.13;;;;;;;14.27;100.00;99478.00;5153162;27;20506;-85
2022/05/23 04:46:03;;;;;;;3.83;1.00;;;;;;;13.77;100.00;99475.41;5138347;27;20054;-83
2022/05/23 04:51:15;;;;;;;2.97;1.13;;;;;;;13.81;100.00;99494.44;5153159;27;20050;-83
2022/05/23 04:53:42;;;;;;;4.90;1.00;;;;;;;13.94;100.00;99476.84;5153246;27;20472;-83
2022/05/23 04:56:09;;;;;;;3.38;1.23;;;;;;;13.74;100.00;99482.69;5153918;27;20051;-83
2022/05/23 04:58:36;;;;;;;4.30;1.00;;;;;;;13.82;100.00;99454.88;5149155;27;20051;-83
2022/05/23 05:01:03;;;;;;;2.55;1.00;;;;;;;13.70;100.00;99447.03;5132340;27;20047;-83
2022/05/23 05:03:30;;;;;;;2.78;0.98;;;;;;;13.79;100.00;99465.63;5143788;27;20061;-83
2022/05/23 05:05:57;;;;;;;3.15;0.90;;;;;;;13.79;100.00;99476.16;5151878;27;20051;-83
2022/05/23 05:08:23;;;;;;;4.60;1.25;;;;;;;13.41;100.00;99458.66;5133586;27;20055;-83
2022/05/23 05:10:50;;;;;;;6.18;1.83;;;;;;;13.62;100.00;99463.38;5137616;27;20043;-83
2022/05/23 05:13:17;;;;;;;3.58;1.05;;;;;;;13.85;100.00;99467.81;5133229;27;20423;-83
2022/05/23 05:15:45;;;;;;;3.08;1.33;;;;;;;14.05;100.00;99436.59;5132824;27;20048;-83
2022/05/23 05:18:12;;;;;;;5.55;1.10;;;;;;;14.08;100.00;99467.09;5144210;27;20130;-83
2022/05/23 05:20:38;;;;;;;1.52;0.90;;;;;;;14.20;100.00;99427.59;5143085;27;20047;-83
2022/05/23 05:23:05;;;;;;;4.38;1.42;;;;;;;13.89;100.00;99433.41;5145981;27;20126;-83
2022/05/23 05:25:32;;;;;;;3.55;1.30;;;;;;;14.28;100.00;99447.25;5145076;27;20046;-83
2022/05/23 05:27:59;;;;;;;2.90;1.00;;;;;;;14.17;100.00;99440.13;5142115;27;20049;-83
2022/05/23 05:30:26;;;;;;;8.57;1.30;;;;;;;14.57;100.00;99459.09;5141336;27;20046;-83
2022/05/23 05:33:05;;;;;;;4.43;1.75;;;;;;;14.32;100.00;99443.41;5142441;27;20458;-84
2022/05/23 05:35:57;;;;;;;4.43;1.27;;;;;;;14.49;100.00;99414.03;5144957;27;20046;-84
2022/05/23 05:38:48;;;;;;;4.30;1.23;;;;;;;14.72;100.00;99449.22;5141454;27;20051;-83
2022/05/23 05:41:24;;;;;;;2.70;1.10;;;;;;;14.70;100.00;99448.50;5146189;27;20059;-84
2022/05/23 05:44:00;;;;;;;3.58;1.10;;;;;;;14.83;100.00;99431.78;5141195;27;20069;-84
2022/05/23 05:46:34;;;;;;;5.43;1.23;;;;;;;14.43;100.00;99404.00;5140720;27;20052;-83
2022/05/23 05:49:05;;;;;;;2.60;1.10;;;;;;;14.25;100.00;99421.97;5146255;27;20050;-83
2022/05/23 05:51:35;;;;;;;4.75;1.23;;;;;;;14.99;100.00;99453.34;5140926;27;20391;-84
2022/05/23 05:54:05;;;;;;;3.22;1.40;;;;;;;14.56;100.00;99425.81;5146074;27;20130;-84
2022/05/23 05:56:32;;;;;;;3.42;1.00;;;;;;;14.96;100.00;99427.22;5139707;27;20423;-84
2022/05/23 05:58:58;;;;;;;3.22;1.20;;;;;;;15.23;100.00;99423.41;5144242;27;20047;-83
2022/05/23 06:01:25;;;;;;;4.88;1.25;;;;;;;15.38;100.00;99430.97;5144367;27;20047;-84
2022/05/23 06:03:52;;;;;;;2.70;1.10;;;;;;;15.26;100.00;99426.66;5142917;27;20047;-84
2022/05/23 06:11:55;;;;;;;3.63;1.15;;;;;;;15.53;100.00;99418.38;5143632;27;20043;-84
2022/05/23 06:14:22;;;;;;;6.80;1.40;;;;;;;15.51;100.00;99404.47;5141517;27;20054;-83
2022/05/23 06:16:49;;;;;;;3.80;1.20;;;;;;;15.55;100.00;99415.63;5140784;27;20048;-84
2022/05/23 06:19:15;;;;;;;4.00;1.30;;;;;;;15.50;100.00;99431.81;5159482;27;20051;-84
2022/05/23 06:21:42;;;;;;;6.03;1.70;;;;;;;15.51;100.00;99416.81;5140100;27;20049;-88
2022/05/23 06:24:09;;;;;;;7.57;1.63;;;;;;;15.13;100.00;99408.31;5145338;27;20066;-89
2022/05/23 06:26:36;;;;;;;3.58;1.30;;;;;;;15.08;100.00;99383.28;5148846;27;20051;-90
2022/05/23 06:29:02;;;;;;;5.65;1.63;;;;;;;15.16;100.00;99410.72;5140722;27;20051;-90
2022/05/23 06:31:29;;;;;;;4.18;1.10;;;;;;;15.34;100.00;99413.72;5147079;27;20483;-89
2022/05/23 06:33:56;;;;;;;3.20;1.05;;;;;;;15.61;100.00;99417.75;5140447;27;20047;-90
2022/05/23 06:36:23;;;;;;;3.72;1.20;;;;;;;15.83;100.00;99413.44;5147214;27;20051;-90
2022/05/23 06:38:50;;;;;;;4.30;1.20;;;;;;;16.11;100.00;99419.94;5142572;27;20089;-88
2022/05/23 06:41:17;;;;;;;4.47;1.30;;;;;;;16.02;100.00;99400.41;5142225;27;20487;-89
2022/05/23 06:43:45;;;;;;;4.57;1.25;;;;;;;16.34;100.00;99407.50;5144513;27;20150;-89
2022/05/23 06:46:13;;;;;;;5.22;1.20;;;;;;;16.14;100.00;99425.81;5141214;27;20378;-88
2022/05/23 06:48:42;;;;;;;4.75;1.30;;;;;;;16.42;100.00;99420.09;5146505;27;20549;-89
2022/05/23 06:51:09;;;;;;;4.45;1.23;;;;;;;16.22;100.00;99401.44;5149290;27;20038;-89
2022/05/23 06:53:36;;;;;;;5.13;1.38;;;;;;;16.44;100.00;99424.28;5146946;27;20047;-89
2022/05/23 06:56:03;;;;;;;4.22;1.10;;;;;;;16.30;100.00;99412.19;5138249;27;21607;-88
2022/05/23 06:58:30;;;;;;;4.30;1.33;;;;;;;16.64;100.00;99417.34;5149066;27;20049;-88
2022/05/23 07:00:57;;;;;;;5.20;1.27;;;;;;;16.07;100.00;99371.84;5155220;27;20039;-88
2022/05/23 07:03:24;;;;;;;3.55;1.08;;;;;;;16.56;100.00;99398.63;5151051;27;20053;-88
2022/05/23 07:14:08;;;;;;;4.25;1.17;;;;;;;16.47;100.00;99420.56;5137731;27;20065;-88
2022/05/23 07:16:35;;;;;;;4.88;1.10;;;;;;;16.86;100.00;99408.47;5146241;27;20046;-88
2022/05/23 07:19:04;;;;;;;5.68;1.20;;;;;;;16.79;100.00;99411.72;5154882;27;20050;-89
2022/05/23 07:21:32;;;;;;;5.38;1.40;;;;;;;17.26;100.00;99394.47;5148530;27;20039;-88
2022/05/23 07:23:59;;;;;;;4.82;1.40;;;;;;;18.11;100.00;99383.50;5134805;27;20050;-89
2022/05/23 07:26:26;;;;;;;3.97;1.20;;;;;;;18.43;100.00;99387.69;5151644;27;20042;-86
2022/05/23 07:28:53;;;;;;;3.45;1.30;;;;;;;19.04;100.00;99381.16;5154302;27;20050;-87
2022/05/23 07:31:21;;;;;;;7.03;1.25;;;;;;;18.95;100.00;99396.97;5152763;27;20416;-86
2022/05/23 07:33:48;;;;;;;3.58;1.10;;;;;;;18.76;100.00;99373.94;5133688;27;20112;-89
2022/05/23 07:36:16;;;;;;;1.63;0.90;;;;;;;19.08;100.00;99393.16;5140220;27;20113;-89
2022/05/23 07:38:43;;;;;;;3.33;1.10;;;;;;;19.20;100.00;99391.16;5148905;27;20047;-89
2022/05/23 07:41:11;;;;;;;4.07;1.20;;;;;;;19.28;100.00;99385.94;5142094;27;20049;-89
2022/05/23 07:43:41;;;;;;;4.40;1.10;;;;;;;19.39;100.00;99385.78;5147408;27;20055;-89
2022/05/23 07:46:12;;;;;;;5.45;1.20;;;;;;;19.29;95.67;99383.16;5139053;27;20043;-88
2022/05/23 07:48:46;;;;;;;5.23;1.10;;;;;;;19.68;97.21;99385.59;5140311;27;20524;-86
2022/05/23 07:51:16;;;;;;;4.40;1.20;;;;;;;19.79;100.00;99392.53;5145151;27;20126;-89
2022/05/23 08:02:01;;;;;;;7.20;1.30;;;;;;;20.22;88.97;99393.63;5150162;27;20420;-87
2022/05/23 08:04:28;;;;;;;5.15;1.38;;;;;;;19.95;85.77;99370.63;5150420;27;20042;-89
2022/05/23 08:06:55;;;;;;;4.03;1.02;;;;;;;20.35;85.75;99376.47;5152062;27;20058;-89
2022/05/23 08:09:22;;;;;;;2.80;0.90;;;;;;;21.00;88.65;99378.75;5154204;27;20075;-89
2022/05/23 08:11:53;;;;;;;7.80;1.80;;;;;;;20.92;80.42;99379.53;5153949;27;20051;-88
2022/05/23 08:14:21;;;;;;;3.15;1.00;;;;;;;21.16;78.26;99385.97;5149048;27;20047;-88
2022/05/23 08:16:49;;;;;;;4.15;1.00;;;;;;;20.62;80.53;99386.16;5138517;27;20476;-88
2022/05/23 08:19:16;;;;;;;4.70;0.90;;;;;;;21.12;76.80;99366.84;5153312;27;20050;-87
2022/05/23 08:21:48;;;;;;;4.28;1.10;;;;;;;21.08;82.48;99384.13;5153676;27;20060;-84
2022/05/23 08:24:16;;;;;;;8.75;1.63;;;;;;;21.26;74.87;99380.56;5140968;27;20057;-85
2022/05/23 08:26:43;;;;;;;4.45;0.90;;;;;;;21.12;74.06;99374.81;5131916;27;20050;-86
2022/05/23 08:29:10;;;;;;;6.72;1.38;;;;;;;20.07;75.08;99376.56;5153949;27;20053;-87
2022/05/23 08:31:44;;;;;;;4.22;1.00;;;;;;;19.24;87.24;99379.28;5123756;27;20716;-86
2022/05/23 08:34:11;;;;;;;6.25;1.67;;;;;;;19.18;100.00;99371.91;5131781;27;20133;-88
2022/05/23 08:40:58;;;;;;;7.20;1.85;;;;;;;18.19;100.00;99368.59;5143938;27;20066;-89
2022/05/23 08:43:43;;;;;;;4.60;1.63;;;;;;;18.17;100.00;99375.03;5142820;27;20043;-87
2022/05/23 08:46:17;;;;;;;12.82;2.33;;;;;;;18.41;100.00;99369.28;5149345;27;20404;-87
2022/05/23 08:48:51;;;;;;;12.95;1.85;;;;;;;18.73;100.00;99345.09;5145935;27;20073;-86
2022/05/23 08:51:32;;;;;;;8.02;1.77;;;;;;;18.93;100.00;99359.16;5142041;27;20039;-87
2022/05/23 08:54:25;;;;;;;7.47;1.60;;;;;;;18.47;100.00;99368.72;5135724;27;20051;-90
2022/05/23 08:56:58;;;;;;;4.68;1.30;;;;;;;19.31;100.00;99349.34;5138544;27;20043;-90
2022/05/23 08:59:29;;;;;;;6.03;1.48;;;;;;;19.82;100.00;99340.97;5146812;27;20091;-90
2022/05/23 09:02:08;;;;;;;7.40;1.50;;;;;;;20.20;91.63;99357.56;5137565;27;20047;-90
2022/05/23 09:04:42;;;;;;;5.85;1.38;;;;;;;20.48;89.83;99350.31;5140942;27;20047;-90
2022/05/23 09:07:29;;;;;;;5.35;1.20;;;;;;;20.27;84.09;99343.53;5137821;27;20597;-89
2022/05/23 09:10:01;;;;;;;5.13;1.42;;;;;;;20.23;83.05;99339.47;5151083;27;20126;-90
2022/05/23 09:12:29;;;;;;;5.72;1.35;;;;;;;20.47;86.30;99336.19;5153350;27;20061;-90
2022/05/23 09:14:56;;;;;;;3.55;1.27;;;;;;;19.47;83.70;99322.13;5139889;27;20055;-90
2022/05/23 09:17:27;;;;;;;6.07;1.05;;;;;;;19.87;86.85;99328.06;5139588;27;20038;-89
2022/05/23 09:20:01;;;;;;;5.10;1.20;;;;;;;20.67;83.73;99310.25;5136778;27;20051;-89
2022/05/23 09:22:43;;;;;;;6.25;1.52;;;;;;;20.38;77.67;99333.59;5139054;27;20051;-90
2022/05/23 09:25:17;;;;;;;6.93;1.20;;;;;;;20.67;79.61;99294.28;5143094;27;20055;-90
2022/05/23 09:27:50;;;;;;;8.02;1.63;;;;;;;21.04;86.80;99292.31;5139558;27;20054;-90
2022/05/23 09:30:26;;;;;;;9.50;2.30;;;;;;;20.32;100.00;99315.63;5134729;27;20155;-90
2022/05/23 09:33:08;;;;;;;8.93;1.95;;;;;;;20.30;96.91;99307.81;5148941;27;20078;-90
2022/05/23 09:35:41;;;;;;;8.13;2.20;;;;;;;19.41;100.00;99321.94;5131020;27;20058;-90
2022/05/23 09:38:16;;;;;;;;;;;;;;;18.28;100.00;99307.81;5143525;27;20066;-90
2022/05/23 09:40:43;;;;;;;9.65;2.17;;;;;;;18.90;100.00;99287.00;5148440;27;19919;-90
2022/05/23 09:49:20;;;;;;;6.57;2.08;;;;;;;18.52;100.00;99291.41;5138634;27;20038;-90
2022/05/23 09:51:55;;;;;;;6.55;2.20;;;;;;;18.72;100.00;99316.06;5152534;27;20125;-90
2022/05/23 09:54:45;;;;;;;13.70;2.60;;;;;;;19.10;100.00;99299.16;5130849;27;20399;-89
2022/05/23 09:57:24;;;;;;;11.10;3.25;;;;;;;19.05;100.00;99312.06;5145008;27;20042;-91
2022/05/23 10:00:00;;;;;;;10.30;2.92;;;;;;;18.06;100.00;99296.53;5142229;27;20130;-90
2022/05/23 10:02:53;;;;;;;7.35;2.17;;;;;;;18.83;100.00;99304.47;5145885;27;20035;-89
2022/05/23 10:05:41;;;;;;;7.10;1.90;;;;;;;18.86;100.00;99290.94;5150200;27;20131;-91
2022/05/23 10:08:13;;;;;;;11.30;3.30;;;;;;;17.69;100.00;99307.81;5133570;27;20705;-90
2022/05/23 10:10:55;;;;;;;12.63;2.88;;;;;;;18.28;100.00;99286.59;5143063;27;20043;-89
2022/05/23 10:13:31;;;;;;;7.53;2.47;;;;;;;18.84;100.00;99312.28;5131585;28;20047;-89
2022/05/23 10:16:00;;;;;;;10.70;2.78;;;;;;;18.81;100.00;99299.28;5129800;27;20043;-90
2022/05/23 10:18:33;;;;;;;9.60;3.00;;;;;;;18.09;100.00;99292.75;5144722;27;20049;-90
2022/05/23 10:21:17;;;;;;;10.27;2.92;;;;;;;18.53;100.00;99288.63;5133700;27;20043;-90
2022/05/23 10:24:01;;;;;;;11.93;2.95;;;;;;;18.46;100.00;99297.31;5131616;28;20427;-90
2022/05/23 10:26:33;;;;;;;8.27;2.80;;;;;;;18.84;100.00;99293.72;5162608;27;20396;-90
2022/05/23 10:29:12;;;;;;;7.20;2.50;;;;;;;18.56;100.00;99298.94;5156007;27;20137;-90
2022/05/23 10:32:01;;;;;;;14.45;4.38;;;;;;;18.42;100.00;99272.09;5156791;27;20051;-89
2022/05/23 10:34:37;;;;;;;9.40;3.13;;;;;;;17.99;100.00;99298.91;5150193;27;20437;-90
2022/05/23 10:37:09;;;;;;;11.52;3.90;;;;;;;18.26;100.00;99296.53;5140983;27;20043;-90
2022/05/23 10:42:55;;;;;;;9.60;2.47;;;;;;;18.09;100.00;99306.00;5145950;27;20042;-90
2022/05/23 10:45:37;;;;;;;12.48;3.08;;;;;;;18.64;100.00;99313.28;5152318;27;20038;-90
2022/05/23 10:48:14;;;;;;;11.23;3.43;;;;;;;18.15;100.00;99305.44;5139764;27;20046;-89
2022/05/23 10:50:49;;;;;;;6.78;1.90;;;;;;;17.90;100.00;99305.06;5142529;27;20283;-90
2022/05/23 10:53:58;;;;;;;6.15;1.73;;;;;;;18.16;100.00;99309.75;5141455;27;20042;-89
2022/05/23 10:56:49;;;;;;;8.60;1.95;;;;;;;18.25;100.00;99308.91;5139085;27;20041;-90
2022/05/23 10:59:28;;;;;;;5.18;1.52;;;;;;;17.73;100.00;99244.84;5141131;27;20047;-90
2022/05/23 11:02:34;;;;;;;4.75;1.40;;;;;;;18.09;100.00;99296.25;5154102;27;20078;-89
2022/05/23 11:05:25;;;;;;;2.85;1.00;;;;;;;18.18;100.00;99303.38;5114865;27;20047;-89
2022/05/23 11:08:10;;;;;;;3.22;1.00;;;;;;;18.24;100.00;99301.09;5151625;27;20047;-90
2022/05/23 11:10:49;;;;;;;3.25;0.98;;;;;;;17.92;100.00;99255.44;5138410;27;20047;-90
2022/05/23 11:13:40;;;;;;;4.80;1.13;;;;;;;17.58;100.00;99284.09;5156069;27;20043;-91
2022/05/23 11:16:22;;;;;;;7.30;1.92;;;;;;;17.14;100.00;99297.69;5152886;27;20494;-90
2022/05/23 11:19:08;;;;;;;5.85;2.17;;;;;;;17.58;100.00;99299.97;5135558;27;20134;-91
2022/05/23 11:21:53;;;;;;;13.77;4.07;;;;;;;17.25;100.00;99302.84;5135809;27;20378;-90
2022/05/23 11:24:31;;;;;;;12.70;3.72;;;;;;;16.60;100.00;99265.28;5135372;27;20491;-91
2022/05/23 11:35:43;;;;;;;8.32;3.03;;;;;;;17.24;100.00;99271.22;5148876;27;20047;-90
2022/05/23 11:38:11;;;;;;;13.80;4.78;;;;;;;16.67;100.00;99245.28;5153445;27;20050;-90
2022/05/23 11:41:05;;;;;;;10.15;2.92;;;;;;;16.95;100.00;99232.34;5134224;27;20053;-91
2022/05/23 11:43:32;;;;;;;12.23;3.22;;;;;;;17.52;100.00;99248.44;5149067;27;20121;-91
2022/05/23 11:46:00;;;;;;;7.82;2.50;;;;;;;17.78;100.00;99240.78;5152560;27;20125;-91
2022/05/23 11:48:41;;;;;;;10.23;3.30;;;;;;;17.80;100.00;99273.25;5151662;27;20046;-91
2022/05/23 11:51:24;;;;;;;9.00;2.55;;;;;;;18.06;100.00;99270.06;5148667;27;20122;-90
2022/05/23 11:54:00;;;;;;;8.90;3.00;;;;;;;18.35;100.00;99269.16;5140818;27;20103;-89
2022/05/23 11:57:00;;;;;;;9.55;2.97;;;;;;;18.73;100.00;99251.44;5141151;27;20054;-89
2022/05/23 11:59:27;;;;;;;11.05;3.10;;;;;;;18.79;100.00;99262.31;5139292;27;20125;-89
2022/05/23 12:02:12;;;;;;;17.00;2.95;;;;;;;18.47;100.00;99267.16;5137752;27;20049;-91
2022/05/23 12:04:52;;;;;;;9.77;3.22;;;;;;;18.02;100.00;99258.91;5145339;27;20053;-85
2022/05/23 12:07:31;;;;;;;9.15;2.70;;;;;;;18.99;100.00;99258.75;5146392;27;20459;-85
2022/05/23 12:10:28;;;;;;;17.40;4.15;;;;;;;17.71;100.00;99262.66;5143342;27;20054;-85
2022/05/23 12:12:57;;;;;;;8.63;3.08;;;;;;;17.93;100.00;99253.63;5144324;27;20047;-85
2022/05/23 12:15:42;;;;;;;13.77;3.33;;;;;;;17.92;100.00;99258.09;5133062;27;20053;-87
2022/05/23 12:18:32;;;;;;;13.20;3.53;;;;;;;18.59;100.00;99264.22;5152009;27;20058;-87
2022/05/23 12:21:06;;;;;;;14.05;3.40;;;;;;;17.67;100.00;99214.47;5139233;27;20039;-87
2022/05/23 12:23:36;;;;;;;9.95;3.25;;;;;;;17.86;100.00;99241.91;5150648;27;20082;-88
2022/05/23 12:26:12;;;;;;;12.32;3.15;;;;;;;17.98;100.00;99264.63;5134060;27;20082;-87
2022/05/23 12:28:49;;;;;;;9.60;2.80;;;;;;;18.15;100.00;99245.38;5151532;27;20054;-88
2022/05/23 12:31:21;;;;;;;13.50;3.35;;;;;;;18.36;100.00;99226.63;5138405;27;20126;-87
2022/05/23 12:34:07;;;;;;;13.00;2.60;;;;;;;18.82;100.00;99234.69;5153955;27;20050;-88
2022/05/23 12:36:39;;;;;;;11.80;3.30;;;;;;;18.58;100.00;99224.59;5136323;27;20057;-87
2022/05/23 12:39:34;;;;;;;10.18;3.35;;;;;;;18.78;100.00;99242.06;5144683;27;20054;-87
2022/05/23 12:42:12;;;;;;;8.65;2.30;;;;;;;19.33;100.00;99246.53;5149967;27;20043;-88
2022/05/23 12:45:08;;;;;;;9.75;3.00;;;;;;;19.06;100.00;99242.09;5152815;27;20573;-87
2022/05/23 12:48:12;;;;;;;11.70;2.75;;;;;;;19.15;100.00;99240.38;5136808;27;20385;-87